createdAt,value
2018-03-20T00:02:19.212Z,13.50
2018-03-20T00:04:47.368Z,14.63
2018-03-20T00:07:15.513Z,17.15
2018-03-20T00:09:43.674Z,14.27
2018-03-20T00:12:12.573Z,12.75
2018-03-20T00:14:40.741Z,13.65
2018-03-20T00:17:09.655Z,13.32
2018-03-20T00:19:37.802Z,14.52
2018-03-20T00:22:06.746Z,13.77
2018-03-20T00:24:34.906Z,14.45
2018-03-20T00:27:03.050Z,15.02
2018-03-20T00:29:31.229Z,16.33
2018-03-20T00:31:59.418Z,15.20
2018-03-20T00:34:27.569Z,16.35
2018-03-20T00:36:55.730Z,15.68
2018-03-20T00:39:24.649Z,16.25
2018-03-20T00:41:52.823Z,15.93
2018-03-20T00:44:20.975Z,16.10
2018-03-20T00:46:49.112Z,17.17
2018-03-20T00:49:17.281Z,14.85
2018-03-20T00:51:45.517Z,15.00
2018-03-20T00:54:13.667Z,14.52
2018-03-20T00:56:41.832Z,14.25
2018-03-20T00:59:10.748Z,15.02
2018-03-20T01:01:38.912Z,13.40
2018-03-20T01:04:07.061Z,14.30
2018-03-20T01:06:35.998Z,11.77
2018-03-20T01:09:04.146Z,11.60
2018-03-20T01:11:33.111Z,11.52
2018-03-20T01:14:02.058Z,13.62
2018-03-20T01:16:30.207Z,11.88
2018-03-20T01:18:58.570Z,12.65
2018-03-20T01:21:27.594Z,12.75
2018-03-20T01:23:55.774Z,11.95
2018-03-20T01:26:23.930Z,12.80
2018-03-20T01:28:52.110Z,12.48
2018-03-20T01:31:20.260Z,12.15
2018-03-20T01:33:48.402Z,12.23
2018-03-20T01:36:17.330Z,13.98
2018-03-20T01:38:45.477Z,11.07
2018-03-20T01:41:14.416Z,11.25
2018-03-20T01:43:43.299Z,13.82
2018-03-20T01:46:11.580Z,12.48
2018-03-20T01:48:39.747Z,15.15
2018-03-20T01:51:07.910Z,16.10
2018-03-20T01:53:36.083Z,15.10
2018-03-20T01:56:04.225Z,15.10
2018-03-20T01:58:33.150Z,13.85
2018-03-20T02:01:01.326Z,15.13
2018-03-20T02:03:29.469Z,12.27
2018-03-20T02:05:57.616Z,13.45
2018-03-20T02:08:25.791Z,10.45
2018-03-20T02:10:54.730Z,11.65
2018-03-20T02:13:22.970Z,11.40
2018-03-20T02:15:51.878Z,13.82
2018-03-20T02:18:20.052Z,10.63
2018-03-20T02:20:48.202Z,10.85
2018-03-20T02:23:17.522Z,10.65
2018-03-20T02:25:45.681Z,10.95
2018-03-20T02:28:14.610Z,11.05
2018-03-20T02:30:42.772Z,9.18
2018-03-20T02:33:10.917Z,9.50
2018-03-20T02:35:39.826Z,10.05
2018-03-20T02:38:08.002Z,10.20
2018-03-20T02:40:36.155Z,10.45
2018-03-20T02:43:04.418Z,11.02
2018-03-20T02:45:33.355Z,11.63
2018-03-20T02:48:01.514Z,11.25
2018-03-20T02:50:29.687Z,12.18
2018-03-20T02:52:57.839Z,10.55
2018-03-20T02:55:25.989Z,9.57
2018-03-20T02:57:54.921Z,12.88
2018-03-20T03:00:23.092Z,9.63
2018-03-20T03:02:51.672Z,8.77
2018-03-20T03:05:20.602Z,9.68
2018-03-20T03:07:48.777Z,10.13
2018-03-20T03:10:16.922Z,8.77
2018-03-20T03:12:45.109Z,8.05
2018-03-20T03:15:13.386Z,8.70
2018-03-20T03:17:41.531Z,8.98
2018-03-20T03:20:09.673Z,8.95
2018-03-20T03:22:38.594Z,8.57
2018-03-20T03:25:06.762Z,9.82
2018-03-20T03:27:34.914Z,8.85
2018-03-20T03:30:03.824Z,10.40
2018-03-20T03:32:32.022Z,8.68
2018-03-20T03:35:00.162Z,8.73
2018-03-20T03:37:28.312Z,8.45
2018-03-20T03:39:57.244Z,7.90
2018-03-20T03:42:25.390Z,8.75
2018-03-20T03:44:54.329Z,8.05
2018-03-20T03:47:22.684Z,8.15
2018-03-20T03:49:50.860Z,9.20
2018-03-20T03:52:19.025Z,8.02
2018-03-20T03:54:47.184Z,8.10
2018-03-20T03:57:15.362Z,7.50
2018-03-20T03:59:43.513Z,7.40
2018-03-20T04:02:12.423Z,8.65
2018-03-20T04:04:40.577Z,6.22
2018-03-20T04:07:09.503Z,7.80
2018-03-20T04:09:37.658Z,7.55
2018-03-20T04:12:05.811Z,7.78
2018-03-20T04:14:34.735Z,7.65
2018-03-20T04:17:02.915Z,7.68
2018-03-20T04:19:31.055Z,7.30
2018-03-20T04:21:59.202Z,8.60
2018-03-20T04:24:27.373Z,8.43
2018-03-20T04:26:55.516Z,7.22
2018-03-20T04:29:23.677Z,7.82
2018-03-20T04:31:51.887Z,8.20
2018-03-20T04:34:20.029Z,7.90
2018-03-20T04:36:48.203Z,7.72
2018-03-20T04:39:16.351Z,7.20
2018-03-20T04:41:44.492Z,7.12
2018-03-20T04:44:13.420Z,7.87
2018-03-20T04:46:41.559Z,6.35
2018-03-20T04:49:09.734Z,7.70
2018-03-20T04:51:38.645Z,8.18
2018-03-20T04:54:06.838Z,7.80
2018-03-20T04:56:34.998Z,8.32
2018-03-20T04:59:03.148Z,9.35
2018-03-20T05:01:32.082Z,8.25
2018-03-20T05:04:00.226Z,8.75
2018-03-20T05:06:28.372Z,8.52
2018-03-20T05:08:57.410Z,7.18
2018-03-20T05:11:25.551Z,7.07
2018-03-20T05:13:54.467Z,5.87
2018-03-20T05:16:22.623Z,7.12
2018-03-20T05:19:08.639Z,6.85
2018-03-20T05:24:43.034Z,6.85
2018-03-20T05:27:11.957Z,7.40
2018-03-20T05:29:40.098Z,6.45
2018-03-20T05:32:09.026Z,6.80
2018-03-20T05:34:37.187Z,6.70
2018-03-20T05:37:05.351Z,7.65
2018-03-20T05:39:33.517Z,7.15
2018-03-20T05:42:01.700Z,7.72
2018-03-20T05:44:29.846Z,6.40
2018-03-20T05:47:16.471Z,6.15
2018-03-20T05:49:51.199Z,6.45
2018-03-20T05:52:19.370Z,7.00
2018-03-20T05:54:47.515Z,6.57
2018-03-20T05:57:15.656Z,7.25
2018-03-20T05:59:43.831Z,6.85
2018-03-20T06:02:12.026Z,9.23
2018-03-20T06:04:40.185Z,6.35
2018-03-20T06:07:08.354Z,6.47
2018-03-20T06:09:36.510Z,5.78
2018-03-20T06:12:04.657Z,7.00
2018-03-20T06:14:32.817Z,6.62
2018-03-20T06:17:01.727Z,7.87
2018-03-20T06:19:30.397Z,7.50
2018-03-20T06:21:58.619Z,6.47
2018-03-20T06:24:26.765Z,6.45
2018-03-20T06:26:54.905Z,6.30
2018-03-20T06:29:23.854Z,6.90
2018-03-20T06:31:52.001Z,6.75
2018-03-20T06:34:20.190Z,6.32
2018-03-20T06:36:48.358Z,5.80
2018-03-20T06:39:16.494Z,6.35
2018-03-20T06:41:45.408Z,5.80
2018-03-20T06:44:13.582Z,5.75
2018-03-20T06:46:41.717Z,5.60
2018-03-20T06:49:10.649Z,6.10
2018-03-20T06:51:38.795Z,6.12
2018-03-20T06:54:06.952Z,5.87
2018-03-20T06:56:35.142Z,6.50
2018-03-20T06:59:03.298Z,7.07
2018-03-20T07:01:32.530Z,6.53
2018-03-20T07:04:00.713Z,6.40
2018-03-20T07:06:28.854Z,6.47
2018-03-20T07:08:57.770Z,6.50
2018-03-20T07:11:25.930Z,5.25
2018-03-20T07:13:54.067Z,6.20
2018-03-20T07:16:22.209Z,6.55
2018-03-20T07:18:50.386Z,4.95
2018-03-20T07:21:18.538Z,5.62
2018-03-20T07:23:46.708Z,6.72
2018-03-20T07:26:14.837Z,6.05
2018-03-20T07:28:43.736Z,5.70
2018-03-20T07:31:12.666Z,6.47
2018-03-20T07:33:40.794Z,7.07
2018-03-20T07:36:09.749Z,6.72
2018-03-20T07:38:37.905Z,6.37
2018-03-20T07:41:06.067Z,6.70
2018-03-20T07:43:34.198Z,6.18
2018-03-20T07:46:03.126Z,6.35
2018-03-20T07:48:31.296Z,7.60
2018-03-20T07:50:59.436Z,7.97
2018-03-20T07:53:28.371Z,7.03
2018-03-20T07:55:56.506Z,7.18
2018-03-20T07:58:25.418Z,7.30
2018-03-20T08:00:53.605Z,7.72
2018-03-20T08:03:21.737Z,6.43
2018-03-20T08:05:50.701Z,6.82
2018-03-20T08:08:18.838Z,6.05
2018-03-20T08:10:47.644Z,6.60
2018-03-20T08:13:15.783Z,7.32
2018-03-20T08:15:43.919Z,7.45
2018-03-20T08:18:12.073Z,8.23
2018-03-20T08:20:40.211Z,7.78
2018-03-20T08:23:08.342Z,8.70
2018-03-20T08:25:37.258Z,6.57
2018-03-20T08:28:05.421Z,7.45
2018-03-20T08:30:33.558Z,7.00
2018-03-20T08:33:01.687Z,6.90
2018-03-20T08:35:29.855Z,7.78
2018-03-20T08:37:57.986Z,6.15
2018-03-20T08:40:26.126Z,7.50
2018-03-20T08:42:54.280Z,8.10
2018-03-20T08:45:22.414Z,7.90
2018-03-20T08:47:51.325Z,7.30
2018-03-20T08:50:19.502Z,7.95
2018-03-20T08:52:48.164Z,7.10
2018-03-20T08:55:17.090Z,8.90
2018-03-20T08:57:45.413Z,7.05
2018-03-20T09:00:14.434Z,7.05
2018-03-20T09:02:42.599Z,7.85
2018-03-20T09:05:11.704Z,7.82
2018-03-20T09:07:39.986Z,8.20
2018-03-20T09:10:08.121Z,9.07
2018-03-20T09:12:37.078Z,8.00
2018-03-20T09:15:05.229Z,7.70
2018-03-20T09:17:33.384Z,8.40
2018-03-20T09:20:01.533Z,7.60
2018-03-20T09:22:29.670Z,8.25
2018-03-20T09:24:57.846Z,7.68
2018-03-20T09:27:25.982Z,8.00
2018-03-20T09:29:54.858Z,8.70
2018-03-20T09:32:24.249Z,8.70
2018-03-20T09:34:53.200Z,9.02
2018-03-20T09:37:21.334Z,9.70
2018-03-20T09:39:49.465Z,8.30
2018-03-20T09:42:17.644Z,9.43
2018-03-20T09:44:45.777Z,9.02
2018-03-20T09:47:13.906Z,9.05
2018-03-20T09:49:42.830Z,9.80
2018-03-20T09:52:11.007Z,8.63
2018-03-20T09:54:39.195Z,11.60
2018-03-20T09:57:07.346Z,11.20
2018-03-20T09:59:35.494Z,11.43
2018-03-20T10:02:04.910Z,10.43
2018-03-20T10:04:33.089Z,9.85
2018-03-20T10:07:01.275Z,10.10
2018-03-20T10:09:29.460Z,11.93
2018-03-20T10:11:57.610Z,11.75
2018-03-20T10:14:26.094Z,11.70
2018-03-20T10:16:54.254Z,13.35
2018-03-20T10:19:22.404Z,11.52
2018-03-20T10:21:51.315Z,12.55
2018-03-20T10:24:19.482Z,12.10
2018-03-20T10:26:47.682Z,13.82
2018-03-20T10:29:15.874Z,12.55
2018-03-20T10:31:44.216Z,12.48
2018-03-20T10:34:12.367Z,12.65
2018-03-20T10:36:41.279Z,12.63
2018-03-20T10:39:09.438Z,13.07
2018-03-20T10:41:37.582Z,13.98
2018-03-20T10:44:05.730Z,13.13
2018-03-20T10:46:33.905Z,17.90
2018-03-20T10:49:02.119Z,13.70
2018-03-20T10:51:30.234Z,13.80
2018-03-20T10:53:58.662Z,11.85
2018-03-20T10:56:27.609Z,11.23
2018-03-20T10:58:55.754Z,11.68
2018-03-20T11:01:29.569Z,10.85
2018-03-20T11:03:57.726Z,10.55
2018-03-20T11:06:25.920Z,9.85
2018-03-20T11:08:54.429Z,11.23
2018-03-20T11:11:22.563Z,11.25
2018-03-20T11:13:50.723Z,10.00
2018-03-20T11:16:18.883Z,10.98
2018-03-20T11:18:47.790Z,10.88
2018-03-20T11:21:15.947Z,9.73
2018-03-20T11:23:45.274Z,9.90
2018-03-20T11:26:13.414Z,11.38
2018-03-20T11:28:42.355Z,10.60
2018-03-20T11:31:10.513Z,9.55
2018-03-20T11:33:38.695Z,10.60
2018-03-20T11:36:06.866Z,10.38
2018-03-20T11:38:35.010Z,11.15
2018-03-20T11:41:03.896Z,12.10
2018-03-20T11:43:32.833Z,11.73
2018-03-20T11:46:01.126Z,10.35
2018-03-20T11:48:29.273Z,11.15
2018-03-20T11:50:57.419Z,10.63
2018-03-20T11:53:26.034Z,9.68
2018-03-20T11:55:54.213Z,10.95
2018-03-20T11:58:22.423Z,10.40
2018-03-20T12:00:51.794Z,10.88
2018-03-20T12:03:19.974Z,11.20
2018-03-20T12:05:48.134Z,11.57
2018-03-20T12:08:34.266Z,10.55
2018-03-20T12:11:03.202Z,10.70
2018-03-20T12:13:31.368Z,10.95
2018-03-20T12:15:59.554Z,11.10
2018-03-20T12:18:27.921Z,10.57
2018-03-20T12:20:56.074Z,10.70
2018-03-20T12:23:24.213Z,9.50
2018-03-20T12:25:52.854Z,10.75
2018-03-20T12:28:21.030Z,9.15
2018-03-20T12:30:49.235Z,10.27
2018-03-20T12:33:17.374Z,10.20
2018-03-20T12:35:45.518Z,8.98
2018-03-20T12:38:13.665Z,9.32
2018-03-20T12:40:42.582Z,9.95
2018-03-20T12:43:10.734Z,9.52
2018-03-20T12:45:39.659Z,10.02
2018-03-20T12:48:07.792Z,8.40
2018-03-20T12:50:36.690Z,8.77
2018-03-20T12:53:05.602Z,7.37
2018-03-20T12:55:33.769Z,7.70
2018-03-20T12:58:01.966Z,8.18
2018-03-20T13:00:30.110Z,9.40
2018-03-20T13:02:58.282Z,7.75
2018-03-20T13:05:27.218Z,7.75
2018-03-20T13:07:55.420Z,7.20
2018-03-20T13:10:23.543Z,6.80
2018-03-20T13:12:51.724Z,7.78
2018-03-20T13:15:19.866Z,7.45
2018-03-20T13:17:48.010Z,7.90
2018-03-20T13:20:16.234Z,8.30
2018-03-20T13:22:44.378Z,7.70
2018-03-20T13:25:12.524Z,8.20
2018-03-20T13:27:40.691Z,8.00
2018-03-20T13:30:08.832Z,9.23
2018-03-20T13:32:36.970Z,8.45
2018-03-20T13:35:05.138Z,9.05
2018-03-20T13:37:33.312Z,10.10
2018-03-20T13:40:02.482Z,9.30
2018-03-20T13:42:30.643Z,9.93
2018-03-20T13:44:58.800Z,9.85
2018-03-20T13:47:26.933Z,9.70
2018-03-20T13:49:55.130Z,9.50
2018-03-20T13:52:23.282Z,8.27
2018-03-20T13:54:51.461Z,8.45
2018-03-20T13:57:19.612Z,8.50
2018-03-20T13:59:48.522Z,8.70
2018-03-20T14:02:16.699Z,9.15
2018-03-20T14:04:44.903Z,9.02
2018-03-20T14:07:13.052Z,8.10
2018-03-20T14:09:41.232Z,8.15
2018-03-20T14:12:10.199Z,7.50
2018-03-20T14:14:38.389Z,8.82
2018-03-20T14:17:06.521Z,8.57
2018-03-20T14:19:35.447Z,9.57
2018-03-20T14:22:03.588Z,9.38
2018-03-20T14:24:32.491Z,9.18
2018-03-20T14:27:01.418Z,8.68
2018-03-20T14:29:29.550Z,8.98
2018-03-20T14:31:58.485Z,9.23
2018-03-20T14:34:26.633Z,8.52
2018-03-20T14:36:54.826Z,7.65
2018-03-20T14:39:22.999Z,7.20
2018-03-20T14:41:51.147Z,6.28
2018-03-20T14:44:19.301Z,7.00
2018-03-20T14:46:47.462Z,6.87
2018-03-20T14:49:16.374Z,5.97
2018-03-20T14:51:44.530Z,5.47
2018-03-20T14:54:13.558Z,6.57
2018-03-20T14:56:41.691Z,5.43
2018-03-20T14:59:10.155Z,4.72
2018-03-20T15:01:38.301Z,5.07
2018-03-20T15:04:06.499Z,5.18
2018-03-20T15:06:34.647Z,4.53
2018-03-20T15:09:02.796Z,4.80
2018-03-20T15:11:30.946Z,5.12
2018-03-20T15:13:59.865Z,5.68
2018-03-20T15:16:28.043Z,6.22
2018-03-20T15:18:56.177Z,5.80
2018-03-20T15:21:25.142Z,5.32
2018-03-20T15:23:53.275Z,5.25
2018-03-20T15:26:21.407Z,4.65
2018-03-20T15:28:50.336Z,5.47
2018-03-20T15:31:18.469Z,5.55
2018-03-20T15:33:47.386Z,5.87
2018-03-20T15:36:15.565Z,4.62
2018-03-20T15:38:43.888Z,4.95
2018-03-20T15:41:12.031Z,5.85
2018-03-20T15:43:40.186Z,5.18
2018-03-20T15:46:08.345Z,5.35
2018-03-20T15:48:36.528Z,4.47
2018-03-20T15:51:04.662Z,3.62
2018-03-20T15:53:32.973Z,3.17
2018-03-20T15:56:01.418Z,2.45
2018-03-20T15:58:29.967Z,2.37
2018-03-20T16:00:58.141Z,2.10
2018-03-20T16:03:26.306Z,3.10
2018-03-20T16:05:54.467Z,2.08
2018-03-20T16:08:22.650Z,2.17
2018-03-20T16:10:50.798Z,2.30
2018-03-20T16:13:18.942Z,2.17
2018-03-20T16:15:48.170Z,2.20
2018-03-20T16:18:16.352Z,1.70
2018-03-20T16:20:45.064Z,1.52
2018-03-20T16:23:13.204Z,2.07
2018-03-20T16:25:41.372Z,1.90
2018-03-20T16:28:09.529Z,1.87
2018-03-20T16:30:38.439Z,1.80
2018-03-20T16:33:06.641Z,1.70
2018-03-20T16:35:34.783Z,2.43
2018-03-20T16:38:02.978Z,2.43
2018-03-20T16:40:31.129Z,2.40
2018-03-20T16:42:59.306Z,1.80
2018-03-20T16:45:27.451Z,1.63
2018-03-20T16:47:56.378Z,2.40
2018-03-20T16:50:24.555Z,1.67
2018-03-20T16:52:52.701Z,2.40
2018-03-20T16:55:20.837Z,2.00
2018-03-20T16:57:49.011Z,1.90
2018-03-20T17:00:17.940Z,1.70
2018-03-20T17:02:46.794Z,1.83
2018-03-20T17:05:14.950Z,1.60
2018-03-20T17:07:43.090Z,2.00
2018-03-20T17:10:11.264Z,1.80
2018-03-20T17:12:39.406Z,1.70
2018-03-20T17:15:08.302Z,1.67
2018-03-20T17:17:36.461Z,1.50
2018-03-20T17:20:05.357Z,2.08
2018-03-20T17:22:34.263Z,1.60
2018-03-20T17:25:02.418Z,1.70
2018-03-20T17:27:31.341Z,1.50
2018-03-20T17:29:59.473Z,2.30
2018-03-20T17:32:28.402Z,1.77
2018-03-20T17:34:56.534Z,1.70
2018-03-20T17:37:24.683Z,1.60
2018-03-20T17:39:52.929Z,2.22
2018-03-20T17:42:21.799Z,2.05
2018-03-20T17:44:49.998Z,1.90
2018-03-20T17:47:18.160Z,2.67
2018-03-20T17:49:46.290Z,2.17
2018-03-20T17:52:15.188Z,2.15
2018-03-20T17:54:44.155Z,2.00
2018-03-20T17:57:12.386Z,1.87
2018-03-20T17:59:40.544Z,2.25
2018-03-20T18:02:08.702Z,1.70
2018-03-20T18:04:37.607Z,2.15
2018-03-20T18:07:06.057Z,2.22
2018-03-20T18:09:34.987Z,2.03
2018-03-20T18:12:03.125Z,2.47
2018-03-20T18:14:32.042Z,2.15
2018-03-20T18:17:00.211Z,2.55
2018-03-20T18:19:28.338Z,2.30
2018-03-20T18:21:57.072Z,2.70
2018-03-20T18:24:25.297Z,2.40
2018-03-20T18:26:53.395Z,2.40
2018-03-20T18:29:22.296Z,2.45
2018-03-20T18:31:50.466Z,2.03
2018-03-20T18:34:18.606Z,1.73
2018-03-20T18:36:46.734Z,2.08
2018-03-20T18:39:14.890Z,1.60
2018-03-20T18:41:43.083Z,1.80
2018-03-20T18:44:11.231Z,1.70
2018-03-20T18:46:39.390Z,1.85
2018-03-20T18:49:08.287Z,2.25
2018-03-20T18:51:37.196Z,2.80
2018-03-20T18:54:05.363Z,2.50
2018-03-20T18:56:33.502Z,2.17
2018-03-20T18:59:01.629Z,2.20
2018-03-20T19:01:29.806Z,2.28
2018-03-20T19:03:57.938Z,2.08
2018-03-20T19:06:26.842Z,1.90
2018-03-20T19:08:54.998Z,2.67
2018-03-20T19:11:23.921Z,2.28
2018-03-20T19:13:52.533Z,2.42
2018-03-20T19:16:20.696Z,1.50
2018-03-20T19:18:48.830Z,1.92
2018-03-20T19:21:16.976Z,1.90
2018-03-20T19:23:45.930Z,2.50
2018-03-20T19:26:14.070Z,2.05
2018-03-20T19:28:42.212Z,2.50
2018-03-20T19:31:11.150Z,1.90
2018-03-20T19:33:39.296Z,1.87
2018-03-20T19:36:07.481Z,1.83
2018-03-20T19:38:35.622Z,2.20
2018-03-20T19:41:04.564Z,1.60
2018-03-20T19:43:32.724Z,2.25
2018-03-20T19:46:00.865Z,1.80
2018-03-20T19:48:29.776Z,2.53
2018-03-20T19:50:57.955Z,2.05
2018-03-20T19:53:26.096Z,2.03
2018-03-20T19:55:55.018Z,1.90
2018-03-20T19:58:23.188Z,1.90
2018-03-20T20:00:51.349Z,2.03
2018-03-20T20:03:19.853Z,1.77
2018-03-20T20:05:48.045Z,1.65
2018-03-20T20:08:16.188Z,2.47
2018-03-20T20:10:44.335Z,1.48
2018-03-20T20:13:13.287Z,1.58
2018-03-20T20:15:41.435Z,1.80
2018-03-20T20:18:09.814Z,2.15
2018-03-20T20:20:37.997Z,1.98
2018-03-20T20:23:06.330Z,2.10
2018-03-20T20:25:35.275Z,2.40
2018-03-20T20:28:03.558Z,2.20
2018-03-20T20:30:31.980Z,1.90
2018-03-20T20:33:00.125Z,1.75
2018-03-20T20:35:29.159Z,1.80
2018-03-20T20:37:57.310Z,1.92
2018-03-20T20:40:26.256Z,2.65
2018-03-20T20:42:54.404Z,2.03
2018-03-20T20:45:22.555Z,2.45
2018-03-20T20:47:50.729Z,2.12
2018-03-20T20:50:18.868Z,2.45
2018-03-20T20:52:47.015Z,3.78
2018-03-20T20:55:15.861Z,2.25
2018-03-20T20:57:44.374Z,2.22
2018-03-20T21:00:13.358Z,2.08
2018-03-20T21:02:41.544Z,2.35
2018-03-20T21:05:09.692Z,2.72
2018-03-20T21:07:37.836Z,2.22
2018-03-20T21:10:06.762Z,1.90
2018-03-20T21:12:34.955Z,2.45
2018-03-20T21:15:03.148Z,1.80
2018-03-20T21:17:31.295Z,2.20
2018-03-20T21:19:59.458Z,2.72
2018-03-20T21:22:27.599Z,1.75
2018-03-20T21:24:55.739Z,2.03
2018-03-20T21:27:23.902Z,2.33
2018-03-20T21:29:52.030Z,2.22
2018-03-20T21:32:20.166Z,2.47
2018-03-20T21:34:49.127Z,2.85
2018-03-20T21:37:17.297Z,2.62
2018-03-20T21:39:45.426Z,2.42
2018-03-20T21:42:14.325Z,2.30
2018-03-20T21:44:42.479Z,3.12
2018-03-20T21:47:11.409Z,2.72
2018-03-20T21:49:39.542Z,2.67
2018-03-20T21:52:08.480Z,2.47
2018-03-20T21:54:36.622Z,2.75
2018-03-20T21:57:04.816Z,2.65
2018-03-20T21:59:32.961Z,2.20
2018-03-20T22:02:01.222Z,2.40
2018-03-20T22:04:29.354Z,2.50
2018-03-20T22:06:57.490Z,2.40
2018-03-20T22:09:25.668Z,2.83
2018-03-20T22:11:53.810Z,2.80
2018-03-20T22:14:22.710Z,2.80
2018-03-20T22:16:51.637Z,2.45
2018-03-20T22:19:19.806Z,2.10
2018-03-20T22:21:47.935Z,2.08
2018-03-20T22:24:16.882Z,2.70
2018-03-20T22:26:45.048Z,3.40
2018-03-20T22:29:13.182Z,2.30
2018-03-20T22:31:42.122Z,2.58
2018-03-20T22:34:10.267Z,2.70
2018-03-20T22:36:38.404Z,2.40
2018-03-20T22:39:07.342Z,3.17
2018-03-20T22:41:35.507Z,2.42
2018-03-20T22:44:03.622Z,2.37
2018-03-20T22:46:31.790Z,4.12
2018-03-20T22:48:59.927Z,3.87
2018-03-20T22:51:28.059Z,2.60
2018-03-20T22:53:57.089Z,2.22
2018-03-20T22:56:25.386Z,2.33
2018-03-20T22:58:53.518Z,2.83
2018-03-20T23:01:21.710Z,2.72
2018-03-20T23:03:50.263Z,3.33
2018-03-20T23:06:19.224Z,2.47
2018-03-20T23:08:47.355Z,2.80
2018-03-20T23:11:15.490Z,2.60
2018-03-20T23:13:44.430Z,3.20
2018-03-20T23:16:12.561Z,3.60
2018-03-20T23:18:41.465Z,3.83
2018-03-20T23:21:09.634Z,3.03
2018-03-20T23:23:37.998Z,3.67
2018-03-20T23:26:06.906Z,3.60
2018-03-20T23:28:35.108Z,2.70
2018-03-20T23:31:03.259Z,2.58
2018-03-20T23:33:31.613Z,3.83
2018-03-20T23:36:00.547Z,3.25
2018-03-20T23:38:28.717Z,2.60
2018-03-20T23:40:56.866Z,2.53
2018-03-20T23:43:24.994Z,2.70
2018-03-20T23:45:53.170Z,2.90
2018-03-20T23:48:21.308Z,3.40
2018-03-20T23:50:49.457Z,3.05
2018-03-20T23:53:17.626Z,2.75
2018-03-20T23:55:45.756Z,3.53
2018-03-20T23:58:14.417Z,3.70
